Time;durP1;ratioP1;P1;durP2;ratioP2;P2;SDS_P1;SDS_P2;PMS_P1;PMS_P2;Temp;Humidity;BMP_temperature;BMP_pressure;BME280_temperature;BME280_humidity;BME280_pressure;Samples;Min_cycle;Max_cycle;Signal;HPM_P1;HPM_P2
2022/12/21 00:01:12;;;;;;;;;6.00;6.00;;;;;13.88;75.48;100435.69;6149089;23;45387;-74
2022/12/21 00:03:38;;;;;;;;;10.00;9.50;;;;;13.88;75.31;100444.41;6147921;23;47226;-75
2022/12/21 00:06:04;;;;;;;;;7.00;6.00;;;;;13.88;74.73;100446.22;6148298;23;46243;-73
2022/12/21 00:08:30;;;;;;;;;9.00;7.00;;;;;13.88;75.22;100446.22;6148689;23;45521;-71
2022/12/21 00:10:58;;;;;;;;;7.75;6.75;;;;;13.87;75.24;100432.22;6149981;23;45392;-73
2022/12/21 00:13:24;;;;;;;;;9.50;8.50;;;;;13.88;74.75;100433.88;6150319;23;46263;-74
2022/12/21 00:16:04;;;;;;;;;9.00;6.00;;;;;13.87;74.83;100445.38;6149472;23;46058;-73
2022/12/21 00:18:31;;;;;;;;;8.50;6.00;;;;;13.85;75.14;100447.31;6148849;23;45672;-74
2022/12/21 00:21:17;;;;;;;;;7.25;6.25;;;;;13.82;75.24;100442.31;6148068;23;45458;-73
2022/12/21 00:23:44;;;;;;;;;6.75;6.75;;;;;13.81;75.17;100445.09;6147882;23;45618;-73
2022/12/21 00:26:11;;;;;;;;;9.50;9.00;;;;;13.81;74.95;100442.47;6147830;23;46300;-73
2022/12/21 00:28:37;;;;;;;;;9.75;6.75;;;;;13.81;75.38;100445.94;6148552;23;45615;-75
2022/12/21 00:31:08;;;;;;;;;9.25;7.25;;;;;13.80;75.54;100432.91;6148662;23;45613;-71
2022/12/21 00:33:34;;;;;;;;;9.25;7.25;;;;;13.76;75.23;100432.34;6147636;23;47366;-73
2022/12/21 00:36:00;;;;;;;;;8.25;8.00;;;;;13.78;75.34;100432.19;6147964;23;46065;-73
2022/12/21 00:38:25;;;;;;;;;7.25;7.00;;;;;13.78;75.24;100434.81;6148269;23;45596;-72
2022/12/21 00:40:59;;;;;;;;;9.00;9.00;;;;;13.79;75.07;100429.44;6147841;23;45842;-72
2022/12/21 00:43:25;;;;;;;;;8.00;7.75;;;;;13.80;75.45;100430.25;6147657;23;47273;-73
2022/12/21 00:45:51;;;;;;;;;9.00;9.00;;;;;13.81;75.33;100434.56;6147689;23;45562;-73
2022/12/21 00:48:17;;;;;;;;;10.25;10.00;;;;;13.80;75.34;100436.38;6148381;23;45529;-72
2022/12/21 00:54:04;;;;;;;;;9.75;7.75;;;;;13.79;75.40;100437.31;6148193;23;45880;-73
2022/12/21 00:56:30;;;;;;;;;6.50;6.00;;;;;13.80;75.91;100438.16;6147357;23;46195;-72
2022/12/21 00:58:55;;;;;;;;;7.25;7.25;;;;;13.81;75.99;100442.47;6148206;23;45721;-72
2022/12/21 01:01:25;;;;;;;;;7.25;6.50;;;;;13.79;75.30;100437.31;6149280;23;45608;-73
2022/12/21 01:03:51;;;;;;;;;10.00;8.75;;;;;13.81;75.40;100447.72;6149076;23;47497;-72
2022/12/21 01:06:22;;;;;;;;;6.00;6.00;;;;;13.81;75.85;100440.66;6149936;23;46602;-71
2022/12/21 01:08:48;;;;;;;;;8.00;6.00;;;;;13.80;75.60;100446.06;6149226;23;45638;-74
2022/12/21 01:11:16;;;;;;;;;6.00;5.75;;;;;13.82;75.94;100455.47;6150440;23;45751;-71
2022/12/21 01:13:42;;;;;;;;;6.25;6.25;;;;;13.82;76.03;100463.38;6149779;23;46408;-72
2022/12/21 01:16:19;;;;;;;;;10.75;7.50;;;;;13.82;75.65;100452.00;6149973;23;46014;-73
2022/12/21 01:18:45;;;;;;;;;8.75;8.00;;;;;13.81;76.25;100459.09;6148512;23;45649;-71
2022/12/21 01:24:32;;;;;;;;;10.00;8.00;;;;;13.78;75.83;100456.72;6149109;23;46110;-72
2022/12/21 01:26:57;;;;;;;;;5.50;5.50;;;;;13.76;75.63;100457.84;6122580;23;48654;-73
2022/12/21 01:29:22;;;;;;;;;7.25;5.00;;;;;13.76;75.98;100463.09;6122697;23;45526;-73
2022/12/21 01:31:49;;;;;;;;;6.00;5.75;;;;;13.80;76.11;100465.34;6149953;23;45672;-72
2022/12/21 01:40:39;;;;;;;;;5.75;4.75;;;;;13.83;75.96;100454.53;6149217;23;45479;-72
2022/12/21 01:43:38;;;;;;;;;4.25;4.25;;;;;13.84;75.88;100466.72;6149273;23;45873;-73
2022/12/21 01:46:07;;;;;;;;;5.25;4.25;;;;;13.81;75.76;100461.75;6149041;23;47352;-71
2022/12/21 01:48:39;;;;;;;;;8.25;5.00;;;;;13.85;75.60;100473.66;6149302;23;45727;-71
2022/12/21 01:51:06;;;;;;;;;5.50;5.25;;;;;13.86;75.30;100477.97;6149282;23;45573;-71
2022/12/21 01:53:36;;;;;;;;;5.75;4.75;;;;;13.88;75.68;100476.00;6149450;23;45592;-71
2022/12/21 01:56:05;;;;;;;;;5.00;4.25;;;;;13.85;75.54;100467.56;6148682;23;46824;-72
2022/12/21 01:58:32;;;;;;;;;4.25;3.75;;;;;13.86;75.26;100472.69;6148139;23;46146;-71
2022/12/21 02:00:59;;;;;;;;;9.00;6.00;;;;;13.86;75.66;100483.25;6148720;23;45640;-70
2022/12/21 02:03:31;;;;;;;;;5.75;5.25;;;;;13.85;75.23;100481.56;6149517;23;45640;-70
2022/12/21 02:06:06;;;;;;;;;4.00;4.00;;;;;13.81;75.60;100501.25;6149152;23;46363;-72
2022/12/21 02:08:32;;;;;;;;;5.00;4.00;;;;;13.68;75.03;100483.97;6149056;23;45908;-71
2022/12/21 02:10:58;;;;;;;;;3.25;3.25;;;;;13.65;75.18;100497.41;6148793;23;45632;-72
2022/12/21 02:13:24;;;;;;;;;4.75;4.00;;;;;13.59;74.95;100501.41;6150116;23;45792;-72
2022/12/21 02:15:58;;;;;;;;;4.00;3.75;;;;;13.57;75.03;100513.03;6151698;23;45669;-72
2022/12/21 02:19:01;;;;;;;;;4.00;3.25;;;;;13.53;74.46;100514.25;6150293;23;45923;-71
2022/12/21 02:21:36;;;;;;;;;3.00;3.00;;;;;13.43;74.59;100503.69;6148614;23;45572;-72
2022/12/21 02:24:17;;;;;;;;;2.25;2.00;;;;;13.38;74.61;100506.69;6149504;23;45529;-71
2022/12/21 02:27:16;;;;;;;;;3.00;3.00;;;;;13.31;74.37;100510.81;6149467;23;45590;-72
2022/12/21 02:30:03;;;;;;;;;6.00;3.00;;;;;13.24;74.39;100495.66;6149377;23;46287;-70
2022/12/21 02:32:50;;;;;;;;;3.25;2.50;;;;;13.20;74.33;100486.34;6149418;23;45518;-71
2022/12/21 02:39:10;;;;;;;;;2.75;2.75;;;;;13.12;74.43;100496.69;6149039;23;45991;-71
2022/12/21 02:41:47;;;;;;;;;3.00;3.00;;;;;13.11;73.98;100510.78;6149245;23;46452;-70
2022/12/21 02:44:37;;;;;;;;;3.00;2.00;;;;;13.01;73.87;100492.25;6149560;23;45760;-72
2022/12/21 02:47:14;;;;;;;;;1.00;1.00;;;;;12.94;73.57;100499.00;6148801;23;45631;-73
2022/12/21 02:49:45;;;;;;;;;3.50;2.75;;;;;12.85;73.67;100508.47;6148355;23;46749;-70
2022/12/21 02:55:32;;;;;;;;;2.50;1.50;;;;;12.71;73.97;100500.91;6148941;23;45521;-73
2022/12/21 02:58:13;;;;;;;;;3.75;2.00;;;;;12.63;73.82;100498.06;6148722;23;45555;-71
2022/12/21 03:00:51;;;;;;;;;2.00;1.75;;;;;12.59;73.81;100523.75;6148231;23;47141;-72
2022/12/21 03:03:48;;;;;;;;;2.25;2.00;;;;;12.52;73.95;100498.91;6148431;23;46321;-72
2022/12/21 03:06:51;;;;;;;;;2.00;2.00;;;;;12.44;74.08;100511.00;6122275;23;45761;-71
2022/12/21 03:09:33;;;;;;;;;1.50;1.50;;;;;12.35;74.05;100503.88;6149590;23;45456;-71
2022/12/21 03:12:13;;;;;;;;;2.00;1.75;;;;;12.35;73.97;100507.34;6149333;23;46534;-72
2022/12/21 03:14:57;;;;;;;;;1.00;1.00;;;;;12.34;73.84;100520.59;6149566;23;46910;-73
2022/12/21 03:17:41;;;;;;;;;1.00;1.00;;;;;12.29;73.79;100523.59;6148895;23;45606;-72
2022/12/21 03:20:16;;;;;;;;;1.00;1.00;;;;;12.27;73.89;100525.50;6149956;23;45639;-71
2022/12/21 03:22:54;;;;;;;;;1.00;0.00;;;;;12.22;73.85;100516.31;6148266;23;46807;-72
2022/12/21 03:25:43;;;;;;;;;0.00;0.00;;;;;12.17;73.74;100517.50;6149363;23;45584;-72
2022/12/21 03:28:19;;;;;;;;;0.00;0.00;;;;;12.13;73.63;100510.84;6149121;23;45532;-73
2022/12/21 03:30:50;;;;;;;;;0.00;0.00;;;;;12.11;73.87;100518.00;6148962;23;45849;-72
2022/12/21 03:33:20;;;;;;;;;1.25;1.00;;;;;12.10;73.86;100513.69;6148570;23;47259;-71
2022/12/21 03:35:50;;;;;;;;;0.00;0.00;;;;;12.08;73.80;100517.41;6148734;23;46169;-72
2022/12/21 03:38:26;;;;;;;;;1.00;1.00;;;;;12.07;73.80;100524.44;6148996;23;45737;-71
2022/12/21 03:40:55;;;;;;;;;0.00;0.00;;;;;12.09;73.84;100525.16;6148907;23;45763;-71
2022/12/21 03:43:28;;;;;;;;;1.00;0.50;;;;;12.12;74.04;100532.81;6149346;23;45522;-71
2022/12/21 03:46:19;;;;;;;;;3.00;1.00;;;;;12.13;73.84;100523.97;6149200;23;46378;-72
2022/12/21 03:48:55;;;;;;;;;0.00;0.00;;;;;12.15;73.72;100523.84;6148927;23;45630;-72
2022/12/21 03:54:50;;;;;;;;;0.00;0.00;;;;;12.19;73.65;100520.03;6149111;23;45884;-70
2022/12/21 03:57:18;;;;;;;;;0.75;0.00;;;;;12.19;73.30;100526.13;6147918;23;46030;-71
2022/12/21 03:59:48;;;;;;;;;0.00;0.00;;;;;12.22;73.36;100526.81;6148075;23;45436;-72
2022/12/21 04:02:37;;;;;;;;;1.00;0.25;;;;;12.20;73.40;100527.75;6148559;23;45752;-72
2022/12/21 04:05:15;;;;;;;;;0.00;0.00;;;;;12.20;73.13;100524.28;6148831;23;45625;-72
2022/12/21 04:11:02;;;;;;;;;0.00;0.00;;;;;12.26;72.94;100534.31;6148643;23;45680;-71
2022/12/21 04:13:27;;;;;;;;;0.00;0.00;;;;;12.26;73.18;100536.94;6148291;23;45645;-71
2022/12/21 04:16:05;;;;;;;;;0.00;0.00;;;;;12.27;72.54;100533.38;6149097;23;46142;-70
2022/12/21 04:21:16;;;;;;;;;0.00;0.00;;;;;12.27;72.49;100541.25;6148861;23;45579;-74
2022/12/21 04:29:47;;;;;;;;;0.00;0.00;;;;;12.26;72.51;100555.34;6148260;23;45815;-71
2022/12/21 04:32:12;;;;;;;;;0.00;0.00;;;;;12.26;72.37;100552.72;6097479;23;45783;-72
2022/12/21 04:34:37;;;;;;;;;0.00;0.00;;;;;12.29;72.33;100556.91;6148687;23;45694;-71
2022/12/21 04:39:47;;;;;;;;;1.00;0.00;;;;;12.23;71.85;100546.88;6149332;23;45799;-71
2022/12/21 04:42:12;;;;;;;;;0.50;0.00;;;;;12.31;71.89;100557.63;6150133;23;45661;-70
2022/12/21 04:44:37;;;;;;;;;0.00;0.00;;;;;12.30;71.71;100550.69;6149476;23;45849;-72
2022/12/21 04:47:03;;;;;;;;;0.00;0.00;;;;;12.27;72.04;100554.38;6149866;23;45561;-73
2022/12/21 04:49:28;;;;;;;;;2.00;1.00;;;;;12.28;71.76;100560.47;6148916;23;46994;-73
2022/12/21 04:51:53;;;;;;;;;0.00;0.00;;;;;12.21;71.79;100549.63;6149426;23;45630;-73
2022/12/21 04:57:40;;;;;;;;;1.00;0.00;;;;;12.15;71.82;100550.94;6147898;23;45668;-70
2022/12/21 05:00:06;;;;;;;;;0.00;0.00;;;;;12.21;71.81;100565.38;6149500;23;46820;-73
2022/12/21 05:02:32;;;;;;;;;0.00;0.00;;;;;12.17;71.85;100550.81;6150230;23;45613;-72
2022/12/21 05:04:57;;;;;;;;;0.00;0.00;;;;;12.17;71.80;100551.66;6124529;23;45860;-72
2022/12/21 05:07:22;;;;;;;;;0.00;0.00;;;;;12.18;71.43;100560.38;6149946;23;46288;-72
2022/12/21 05:09:48;;;;;;;;;1.00;0.00;;;;;12.19;71.50;100564.69;6150226;23;46073;-72
2022/12/21 05:12:13;;;;;;;;;1.50;0.75;;;;;12.12;71.82;100553.81;6148487;23;46439;-72
2022/12/21 05:14:38;;;;;;;;;0.00;0.00;;;;;12.16;71.17;100567.53;6150371;23;45658;-71
2022/12/21 05:17:04;;;;;;;;;1.00;1.00;;;;;12.15;71.61;100577.19;6150003;23;46599;-72
2022/12/21 05:19:29;;;;;;;;;1.00;0.00;;;;;12.10;71.49;100568.00;6149543;23;46048;-73
2022/12/21 05:21:54;;;;;;;;;0.50;0.50;;;;;12.15;71.17;100573.72;6149094;23;45568;-73
2022/12/21 05:27:41;;;;;;;;;0.50;0.25;;;;;12.07;71.22;100568.25;6149183;23;45589;-72
2022/12/21 05:30:07;;;;;;;;;0.00;0.00;;;;;11.99;71.02;100557.50;6148610;23;45807;-71
2022/12/21 05:32:32;;;;;;;;;0.50;0.00;;;;;12.07;70.89;100576.97;6149582;23;45505;-73
2022/12/21 05:34:57;;;;;;;;;0.25;0.00;;;;;12.01;70.92;100566.09;6149115;23;45379;-72
2022/12/21 05:37:23;;;;;;;;;0.00;0.00;;;;;12.01;70.75;100566.94;6148864;23;47176;-72
2022/12/21 05:43:10;;;;;;;;;1.00;0.00;;;;;11.90;70.78;100568.72;6149483;23;45551;-71
2022/12/21 05:45:35;;;;;;;;;2.00;1.00;;;;;11.81;70.75;100564.19;6149065;23;45715;-73
2022/12/21 05:48:00;;;;;;;;;0.75;0.75;;;;;11.87;70.90;100569.81;6148805;23;47327;-72
2022/12/21 05:50:26;;;;;;;;;1.00;0.00;;;;;11.85;70.63;100574.31;6148703;23;46952;-72
2022/12/21 05:52:51;;;;;;;;;0.50;0.00;;;;;11.83;70.64;100572.75;6149829;23;45417;-71
2022/12/21 05:58:38;;;;;;;;;0.25;0.25;;;;;11.78;70.83;100576.59;6144411;23;45762;-73
2022/12/21 06:01:06;;;;;;;;;1.00;1.00;;;;;11.78;70.93;100579.22;6148736;23;46243;-73
2022/12/21 06:03:32;;;;;;;;;1.25;0.00;;;;;11.77;70.94;100576.69;6148798;23;45797;-73
2022/12/21 06:06:11;;;;;;;;;0.00;0.00;;;;;11.77;71.16;100579.31;6149159;23;45414;-72
2022/12/21 06:08:37;;;;;;;;;1.00;1.00;;;;;11.74;70.84;100574.31;6122376;23;47424;-70
2022/12/21 06:11:10;;;;;;;;;1.00;0.25;;;;;11.72;71.04;100579.63;6151901;23;45946;-71
2022/12/21 06:13:36;;;;;;;;;0.00;0.00;;;;;11.66;70.57;100569.59;6150508;23;45633;-72
2022/12/21 06:16:04;;;;;;;;;1.00;1.00;;;;;11.67;70.83;100573.06;6149495;23;45747;-72
2022/12/21 06:18:29;;;;;;;;;1.00;1.00;;;;;11.61;70.91;100566.50;6149329;23;46292;-72
2022/12/21 06:20:55;;;;;;;;;0.00;0.00;;;;;11.63;71.02;100569.84;6149172;23;46037;-70
2022/12/21 06:23:20;;;;;;;;;1.25;1.25;;;;;11.64;70.95;100578.56;6148545;23;45454;-72
2022/12/21 06:29:07;;;;;;;;;1.00;0.50;;;;;11.59;70.85;100588.56;6148917;23;45581;-71
2022/12/21 06:31:32;;;;;;;;;1.00;1.00;;;;;11.60;71.19;100592.88;6148864;23;46203;-72
2022/12/21 06:33:58;;;;;;;;;1.00;0.75;;;;;11.57;71.15;100591.31;6148589;23;45597;-71
2022/12/21 06:36:23;;;;;;;;;2.00;1.25;;;;;11.57;71.11;100603.59;6149796;23;45704;-70
2022/12/21 06:38:49;;;;;;;;;1.00;1.00;;;;;11.54;71.12;100604.66;6149384;23;45541;-71
2022/12/21 06:41:15;;;;;;;;;0.75;0.75;;;;;11.52;71.13;100603.09;6149054;23;45954;-72
2022/12/21 06:43:42;;;;;;;;;1.75;1.00;;;;;11.43;71.26;100598.53;6149431;23;45430;-72
2022/12/21 06:46:10;;;;;;;;;1.00;1.00;;;;;11.46;71.36;100604.38;6148876;23;45490;-71
2022/12/21 06:48:37;;;;;;;;;1.00;0.00;;;;;11.33;71.30;100585.28;6148458;23;47491;-72
2022/12/21 06:51:06;;;;;;;;;1.00;0.75;;;;;11.40;71.41;100593.50;6148220;23;45955;-72
2022/12/21 06:53:35;;;;;;;;;1.50;0.00;;;;;11.39;71.40;100605.78;6149311;23;45556;-72
2022/12/21 06:59:22;;;;;;;;;1.00;1.00;;;;;11.28;71.58;100616.28;6144899;23;45974;-74
2022/12/21 07:01:48;;;;;;;;;2.00;2.00;;;;;11.27;71.62;100606.72;6148743;23;46452;-74
2022/12/21 07:04:14;;;;;;;;;1.75;1.50;;;;;11.22;71.46;100609.69;6148864;23;45447;-73
2022/12/21 07:06:41;;;;;;;;;2.00;1.00;;;;;11.14;71.62;100619.06;6148521;23;45776;-73
2022/12/21 07:09:07;;;;;;;;;1.25;1.25;;;;;11.08;71.55;100622.94;6148416;23;47381;-75
2022/12/21 07:11:33;;;;;;;;;2.75;2.00;;;;;11.01;71.75;100628.78;6148406;23;47366;-73
2022/12/21 07:13:59;;;;;;;;;2.75;2.50;;;;;11.02;71.77;100633.03;6122454;23;46173;-74
2022/12/21 07:16:25;;;;;;;;;3.25;1.25;;;;;10.98;71.88;100621.13;6150470;23;45472;-72
2022/12/21 07:18:51;;;;;;;;;3.00;2.00;;;;;10.99;71.83;100630.66;6148553;23;47279;-73
2022/12/21 07:21:19;;;;;;;;;2.00;2.00;;;;;10.97;71.85;100622.06;6148842;23;45896;-72
2022/12/21 07:23:45;;;;;;;;;1.25;1.00;;;;;10.97;71.83;100622.06;6148570;23;45565;-72
2022/12/21 07:29:33;;;;;;;;;3.75;3.00;;;;;10.99;71.94;100620.16;6148438;23;45994;-71
2022/12/21 07:31:58;;;;;;;;;3.00;3.00;;;;;11.02;72.00;100633.03;6121755;23;46192;-70
2022/12/21 07:34:23;;;;;;;;;3.00;2.50;;;;;11.02;72.34;100623.41;6149063;23;45656;-74
2022/12/21 07:36:48;;;;;;;;;3.25;3.25;;;;;11.06;72.21;100621.41;6149364;23;45629;-70
2022/12/21 07:39:14;;;;;;;;;3.50;2.75;;;;;11.03;72.02;100625.06;6148709;23;46607;-72
2022/12/21 07:41:39;;;;;;;;;3.25;3.25;;;;;11.09;71.92;100639.53;6147708;23;47906;-71
2022/12/21 07:44:04;;;;;;;;;7.00;2.75;;;;;11.10;71.95;100649.06;6147917;23;45613;-72
2022/12/21 07:46:30;;;;;;;;;7.25;4.00;;;;;11.09;71.68;100640.38;6148285;23;45411;-71
2022/12/21 07:48:55;;;;;;;;;3.75;3.00;;;;;11.05;71.65;100630.22;6148234;23;46160;-72
2022/12/21 07:51:20;;;;;;;;;7.00;4.50;;;;;11.08;71.80;100646.56;6148334;23;46900;-71
2022/12/21 07:53:46;;;;;;;;;4.00;3.25;;;;;10.99;71.74;100630.66;6149082;23;45531;-70
2022/12/21 07:56:17;;;;;;;;;5.50;3.00;;;;;11.08;71.79;100651.78;6148524;23;45796;-70
2022/12/21 07:58:42;;;;;;;;;5.00;3.00;;;;;11.08;71.61;100651.78;6147542;23;46402;-69
2022/12/21 08:01:13;;;;;;;;;6.00;4.00;;;;;11.02;71.75;100644.38;6147949;23;46082;-74
2022/12/21 08:03:47;;;;;;;;;4.00;3.00;;;;;11.09;71.64;100655.25;6148914;23;45757;-72
2022/12/21 08:06:13;;;;;;;;;6.75;3.00;;;;;11.05;71.53;100643.31;6148648;23;47002;-70
2022/12/21 08:08:39;;;;;;;;;3.00;2.00;;;;;11.10;71.54;100662.19;6147945;23;46577;-70
2022/12/21 08:11:11;;;;;;;;;4.50;4.00;;;;;11.09;71.52;100652.63;6148673;23;45943;-70
2022/12/21 08:13:36;;;;;;;;;2.75;2.75;;;;;11.09;71.58;100648.22;6148976;23;45728;-71
2022/12/21 08:16:03;;;;;;;;;3.25;1.75;;;;;11.10;71.44;100647.28;6148928;23;45557;-73
2022/12/21 08:18:29;;;;;;;;;5.00;3.50;;;;;11.10;71.35;100647.28;6148847;23;45572;-70
2022/12/21 08:20:55;;;;;;;;;2.00;1.75;;;;;11.11;71.71;100656.00;6122229;23;46114;-70
2022/12/21 08:23:21;;;;;;;;;2.50;2.50;;;;;11.11;71.49;100656.84;6150172;23;45471;-70
2022/12/21 08:25:46;;;;;;;;;3.00;2.50;;;;;11.03;71.36;100645.22;6124949;23;45517;-71
2022/12/21 08:28:12;;;;;;;;;4.00;4.00;;;;;11.11;71.43;100658.63;6148681;23;47547;-71
2022/12/21 08:30:38;;;;;;;;;5.50;4.00;;;;;11.08;71.57;100651.78;6148870;23;46175;-70
2022/12/21 08:33:03;;;;;;;;;3.25;3.00;;;;;11.13;71.47;100654.06;6148087;23;45558;-69
2022/12/21 08:35:29;;;;;;;;;6.00;4.00;;;;;11.12;71.41;100645.38;6148186;23;45709;-70
2022/12/21 08:37:55;;;;;;;;;3.00;3.00;;;;;11.10;71.51;100634.19;6147784;23;46171;-69
2022/12/21 08:40:20;;;;;;;;;4.00;3.00;;;;;11.15;71.43;100645.16;6147817;23;47090;-70
2022/12/21 08:46:09;;;;;;;;;3.00;3.00;;;;;11.19;71.39;100664.97;6148515;23;45518;-70
2022/12/21 08:48:35;;;;;;;;;3.00;3.00;;;;;11.16;71.41;100659.13;6148308;23;46625;-70
2022/12/21 08:51:02;;;;;;;;;3.00;2.75;;;;;11.20;71.20;100663.19;6147710;23;47469;-71
2022/12/21 08:53:27;;;;;;;;;3.75;3.75;;;;;11.22;71.31;100677.88;6148493;23;45597;-71
2022/12/21 08:55:53;;;;;;;;;6.75;3.00;;;;;11.21;71.23;100670.09;6148152;23;45533;-70
2022/12/21 08:58:19;;;;;;;;;6.00;3.50;;;;;11.21;71.22;100676.19;6147967;23;45562;-72
2022/12/21 09:00:45;;;;;;;;;7.00;3.00;;;;;11.24;71.16;100665.47;6147813;23;47079;-69
2022/12/21 09:03:11;;;;;;;;;3.25;3.00;;;;;11.24;71.12;100651.50;6148673;23;45554;-70
2022/12/21 09:05:37;;;;;;;;;4.00;3.00;;;;;11.24;71.25;100652.34;6148635;23;45460;-70
2022/12/21 09:08:03;;;;;;;;;5.00;3.50;;;;;11.26;71.29;100645.22;6148062;23;46170;-69
2022/12/21 09:10:31;;;;;;;;;1.50;1.50;;;;;11.29;71.21;100639.75;6147544;23;46899;-70
2022/12/21 09:16:23;;;;;;;;;5.00;3.00;;;;;11.32;71.26;100652.66;6148388;23;45547;-69
2022/12/21 09:18:50;;;;;;;;;4.75;2.75;;;;;11.33;71.30;100650.84;6139272;23;47335;-71
2022/12/21 09:21:17;;;;;;;;;3.25;3.00;;;;;11.32;71.22;100652.66;6150281;23;46540;-72
2022/12/21 09:23:43;;;;;;;;;3.00;3.00;;;;;11.30;71.29;100636.16;6150141;23;45427;-70
2022/12/21 09:26:10;;;;;;;;;6.50;5.00;;;;;11.36;71.38;100650.63;6150343;23;45556;-72
2022/12/21 09:28:37;;;;;;;;;4.50;3.50;;;;;11.41;71.41;100652.91;6149707;23;47526;-73
2022/12/21 09:31:21;;;;;;;;;2.75;2.50;;;;;11.39;71.40;100647.75;6123351;23;47489;-73
2022/12/21 09:33:46;;;;;;;;;2.75;2.75;;;;;11.48;71.28;100647.09;6149990;23;45632;-72
2022/12/21 09:36:13;;;;;;;;;4.25;3.00;;;;;11.52;71.30;100652.94;6150685;23;45828;-72
2022/12/21 09:38:38;;;;;;;;;3.00;3.00;;;;;11.56;71.25;100675.38;6149394;23;48847;-71
2022/12/21 09:41:07;;;;;;;;;1.75;1.50;;;;;11.59;71.42;100685.66;6148711;23;46906;-69
2022/12/21 09:43:35;;;;;;;;;3.25;3.00;;;;;11.61;71.21;100668.00;6149768;23;45452;-71
2022/12/21 09:46:11;;;;;;;;;3.00;2.00;;;;;11.64;71.15;100666.00;6149122;23;45909;-71
2022/12/21 09:48:44;;;;;;;;;7.00;2.00;;;;;11.66;71.31;100679.81;6148817;23;47314;-71
2022/12/21 09:51:17;;;;;;;;;3.75;3.00;;;;;11.69;71.18;100686.66;6149754;23;45999;-71
2022/12/21 09:53:48;;;;;;;;;3.00;2.00;;;;;11.71;71.18;100693.44;6149624;23;45459;-72
2022/12/21 09:56:21;;;;;;;;;3.00;3.00;;;;;11.76;70.89;100685.28;6150086;23;45661;-69
2022/12/21 09:58:48;;;;;;;;;4.00;3.25;;;;;11.76;71.08;100680.88;6148780;23;46489;-72
2022/12/21 10:01:27;;;;;;;;;6.00;3.00;;;;;11.82;70.93;100681.38;6149044;23;46894;-74
2022/12/21 10:04:01;;;;;;;;;3.75;3.00;;;;;11.81;70.72;100682.31;6149208;23;45720;-73
2022/12/21 10:06:37;;;;;;;;;3.00;2.75;;;;;11.81;71.01;100687.56;6149251;23;45584;-71
2022/12/21 10:09:06;;;;;;;;;3.75;3.00;;;;;11.82;70.80;100687.44;6148755;23;46363;-69
2022/12/21 10:11:52;;;;;;;;;4.00;3.00;;;;;11.83;70.89;100673.34;6148753;23;46200;-69
2022/12/21 10:14:43;;;;;;;;;5.00;3.00;;;;;11.88;70.75;100692.22;6148626;23;45724;-70
2022/12/21 10:17:42;;;;;;;;;2.25;2.25;;;;;11.92;70.77;100685.81;6148981;23;45435;-72
2022/12/21 10:20:46;;;;;;;;;3.25;3.00;;;;;11.92;70.86;100679.72;6149002;23;46490;-69
2022/12/21 10:23:26;;;;;;;;;2.75;2.75;;;;;11.93;70.66;100669.06;6148944;23;46982;-71
2022/12/21 10:26:02;;;;;;;;;3.25;3.00;;;;;11.96;70.89;100668.03;6149664;23;45742;-73
2022/12/21 10:28:30;;;;;;;;;2.50;2.00;;;;;11.98;70.54;100660.88;6149269;23;45678;-70
2022/12/21 10:31:17;;;;;;;;;2.75;2.50;;;;;12.00;70.64;100649.28;6149848;23;47244;-68
2022/12/21 10:33:46;;;;;;;;;4.00;2.00;;;;;11.98;70.62;100642.50;6149013;23;46187;-70
2022/12/21 10:36:31;;;;;;;;;2.00;2.00;;;;;12.05;70.56;100644.53;6149565;23;45619;-69
2022/12/21 10:38:57;;;;;;;;;4.00;3.00;;;;;12.15;70.65;100663.88;6149778;23;45488;-70
2022/12/21 10:41:28;;;;;;;;;2.50;2.50;;;;;12.19;70.27;100649.56;6123650;23;45518;-73
2022/12/21 10:43:57;;;;;;;;;3.75;3.00;;;;;12.22;70.59;100643.22;6149281;23;46109;-71
2022/12/21 10:46:29;;;;;;;;;2.00;2.00;;;;;12.18;70.27;100626.03;6148976;23;45690;-71
2022/12/21 10:48:59;;;;;;;;;3.50;3.50;;;;;12.28;70.14;100636.66;6149445;23;45492;-70
2022/12/21 10:51:32;;;;;;;;;3.75;3.25;;;;;12.30;70.07;100630.34;6148836;23;46674;-69
2022/12/21 10:54:03;;;;;;;;;3.75;3.00;;;;;12.34;70.41;100629.13;6148643;23;47051;-71
2022/12/21 10:56:31;;;;;;;;;4.75;3.75;;;;;12.36;70.44;100621.16;6149304;23;45565;-71
2022/12/21 10:59:07;;;;;;;;;3.25;2.00;;;;;12.38;70.15;100619.22;6147208;23;45792;-69
2022/12/21 11:01:33;;;;;;;;;2.75;2.75;;;;;12.41;70.02;100611.13;6149280;23;46281;-70
2022/12/21 11:04:25;;;;;;;;;3.50;3.25;;;;;12.42;70.26;100608.34;6148706;23;46068;-71
2022/12/21 11:07:04;;;;;;;;;4.00;2.50;;;;;12.47;69.94;100602.75;6149312;23;45644;-70
2022/12/21 11:09:38;;;;;;;;;4.25;3.00;;;;;12.48;70.05;100597.34;6148510;23;45768;-71
2022/12/21 11:15:24;;;;;;;;;7.00;3.00;;;;;12.55;69.81;100595.06;6149011;23;45751;-71
2022/12/21 11:17:50;;;;;;;;;4.75;4.00;;;;;12.58;69.96;100590.41;6148517;23;45559;-69
2022/12/21 11:20:19;;;;;;;;;4.00;3.00;;;;;12.63;69.69;100588.25;6148904;23;45574;-69
2022/12/21 11:22:47;;;;;;;;;6.25;3.00;;;;;12.62;69.47;100570.00;6148556;23;47209;-69
2022/12/21 11:25:20;;;;;;;;;5.00;4.00;;;;;12.71;69.58;100586.81;6148478;23;46283;-70
2022/12/21 11:31:08;;;;;;;;;4.50;4.00;;;;;12.75;69.27;100582.97;6149993;23;45364;-73
2022/12/21 11:33:33;;;;;;;;;4.00;4.00;;;;;12.76;69.22;100579.38;6150136;23;46310;-71
2022/12/21 11:36:16;;;;;;;;;4.50;3.50;;;;;12.77;69.47;100565.28;6150943;23;45566;-72
2022/12/21 11:38:42;;;;;;;;;5.25;4.00;;;;;12.80;69.11;100570.28;6149805;23;45716;-71
2022/12/21 11:41:29;;;;;;;;;5.50;4.75;;;;;12.82;69.13;100563.13;6148859;23;45443;-70
2022/12/21 11:48:00;;;;;;;;;4.00;3.75;;;;;12.87;69.10;100546.00;6148682;23;45902;-70
2022/12/21 11:50:46;;;;;;;;;4.25;3.75;;;;;12.89;69.04;100548.53;6058199;23;45585;-69
2022/12/21 11:53:26;;;;;;;;;3.00;3.00;;;;;12.91;68.99;100554.47;6058129;23;45875;-72
2022/12/21 11:55:57;;;;;;;;;5.75;4.00;;;;;12.91;69.12;100544.78;6058204;23;45681;-71
2022/12/21 11:58:38;;;;;;;;;4.00;3.00;;;;;12.92;69.25;100538.56;6057015;23;47130;-71
2022/12/21 12:01:18;;;;;;;;;6.50;4.00;;;;;12.94;68.86;100538.47;6057667;23;45764;-75
2022/12/21 12:03:53;;;;;;;;;4.00;3.25;;;;;12.94;69.28;100525.31;6057592;23;45667;-74
2022/12/21 12:06:52;;;;;;;;;3.75;3.00;;;;;12.85;68.64;100503.22;6057112;23;46373;-72
2022/12/21 12:09:29;;;;;;;;;4.00;4.00;;;;;12.97;69.13;100515.38;6057062;23;47306;-71
2022/12/21 12:12:22;;;;;;;;;3.50;3.00;;;;;12.99;69.14;100515.25;6057932;23;45703;-74
2022/12/21 12:15:18;;;;;;;;;5.25;4.00;;;;;13.00;69.17;100507.25;6057291;23;45685;-71
2022/12/21 12:18:08;;;;;;;;;5.75;3.50;;;;;13.02;68.66;100509.72;6057429;23;45516;-73
2022/12/21 12:20:49;;;;;;;;;5.00;5.00;;;;;13.01;68.94;100506.25;6057776;23;46643;-71
2022/12/21 12:23:31;;;;;;;;;4.50;3.50;;;;;12.99;68.69;100491.56;6063727;23;45715;-73
2022/12/21 12:26:22;;;;;;;;;4.00;4.00;;;;;12.98;68.67;100487.28;6148709;23;45604;-74
2022/12/21 12:32:25;;;;;;;;;7.25;4.50;;;;;12.97;68.61;100480.34;6148184;23;45746;-73
2022/12/21 12:35:03;;;;;;;;;5.00;3.25;;;;;13.01;68.63;100476.47;6148411;23;45617;-73
2022/12/21 12:37:37;;;;;;;;;4.00;3.00;;;;;13.01;68.68;100477.31;6149641;23;45516;-73
2022/12/21 12:40:10;;;;;;;;;3.00;3.00;;;;;13.02;68.38;100465.84;6149025;23;46465;-72
2022/12/21 12:49:01;;;;;;;;;3.50;3.00;;;;;13.03;68.71;100438.59;6148381;23;45590;-73
2022/12/21 12:51:38;;;;;;;;;3.00;3.00;;;;;13.05;68.39;100438.47;6148409;23;46791;-73
2022/12/21 12:54:23;;;;;;;;;3.00;2.25;;;;;13.04;68.49;100432.38;6147686;23;46145;-74
2022/12/21 12:56:51;;;;;;;;;2.00;2.00;;;;;13.08;68.78;100440.00;6149628;23;45542;-72
2022/12/21 12:59:29;;;;;;;;;4.75;3.00;;;;;13.10;68.07;100431.03;6148771;23;45623;-74
2022/12/21 13:02:02;;;;;;;;;1.25;1.00;;;;;13.07;68.53;100428.63;6149062;23;47255;-74
2022/12/21 13:04:53;;;;;;;;;4.00;2.75;;;;;13.09;68.52;100429.34;6149767;23;46110;-73
2022/12/21 13:07:25;;;;;;;;;3.00;2.75;;;;;13.09;68.34;100424.09;6149069;23;45732;-69
2022/12/21 13:10:20;;;;;;;;;3.00;2.75;;;;;13.10;68.64;100417.88;6149443;23;45553;-72
2022/12/21 13:16:55;;;;;;;;;2.50;1.00;;;;;13.07;69.15;100391.81;6149277;23;46100;-75